sensor_id;sensor_type;location;lat;lon;timestamp;temperature;humidity
5578;DHT22;2811;51.900;10.734;2022-11-20T00:01:19;-3.70;99.90
5578;DHT22;2811;51.900;10.734;2022-11-20T00:03:47;-3.70;99.90
5578;DHT22;2811;51.900;10.734;2022-11-20T00:06:16;-3.60;99.90
5578;DHT22;2811;51.900;10.734;2022-11-20T00:08:43;-3.60;99.90
5578;DHT22;2811;51.900;10.734;2022-11-20T00:11:12;-3.80;99.90
5578;DHT22;2811;51.900;10.734;2022-11-20T00:13:39;-3.80;99.90
5578;DHT22;2811;51.900;10.734;2022-11-20T00:16:09;-3.70;99.90
5578;DHT22;2811;51.900;10.734;2022-11-20T00:18:37;-3.70;99.90
5578;DHT22;2811;51.900;10.734;2022-11-20T00:21:04;-3.80;99.90
5578;DHT22;2811;51.900;10.734;2022-11-20T00:23:32;-3.90;99.90
5578;DHT22;2811;51.900;10.734;2022-11-20T00:26:01;-3.90;99.90
5578;DHT22;2811;51.900;10.734;2022-11-20T00:28:29;-4.00;99.90
5578;DHT22;2811;51.900;10.734;2022-11-20T00:31:01;-3.90;99.90
5578;DHT22;2811;51.900;10.734;2022-11-20T00:33:29;-3.90;99.90
5578;DHT22;2811;51.900;10.734;2022-11-20T00:35:59;-3.80;99.90
5578;DHT22;2811;51.900;10.734;2022-11-20T00:38:27;-3.80;99.90
5578;DHT22;2811;51.900;10.734;2022-11-20T00:40:57;-3.80;99.90
5578;DHT22;2811;51.900;10.734;2022-11-20T00:43:25;-3.80;99.90
5578;DHT22;2811;51.900;10.734;2022-11-20T00:45:56;-3.70;99.90
5578;DHT22;2811;51.900;10.734;2022-11-20T00:48:23;-3.70;99.90
5578;DHT22;2811;51.900;10.734;2022-11-20T00:50:51;-3.80;99.90
5578;DHT22;2811;51.900;10.734;2022-11-20T00:53:18;-3.80;99.90
5578;DHT22;2811;51.900;10.734;2022-11-20T00:55:53;-3.80;99.90
5578;DHT22;2811;51.900;10.734;2022-11-20T00:58:20;-3.70;99.90
5578;DHT22;2811;51.900;10.734;2022-11-20T01:00:46;-3.70;99.90
5578;DHT22;2811;51.900;10.734;2022-11-20T01:03:14;-3.60;99.90
5578;DHT22;2811;51.900;10.734;2022-11-20T01:05:41;-3.70;99.90
5578;DHT22;2811;51.900;10.734;2022-11-20T01:08:09;-3.70;99.90
5578;DHT22;2811;51.900;10.734;2022-11-20T01:10:36;-3.70;99.90
5578;DHT22;2811;51.900;10.734;2022-11-20T01:13:03;-3.70;99.90
5578;DHT22;2811;51.900;10.734;2022-11-20T01:15:47;-3.80;99.90
5578;DHT22;2811;51.900;10.734;2022-11-20T01:18:14;-3.80;99.90
5578;DHT22;2811;51.900;10.734;2022-11-20T01:20:41;-3.70;99.90
5578;DHT22;2811;51.900;10.734;2022-11-20T01:23:09;-3.70;99.90
5578;DHT22;2811;51.900;10.734;2022-11-20T01:25:36;-3.70;99.90
5578;DHT22;2811;51.900;10.734;2022-11-20T01:28:02;-3.80;99.90
5578;DHT22;2811;51.900;10.734;2022-11-20T01:30:29;-3.90;99.90
5578;DHT22;2811;51.900;10.734;2022-11-20T01:32:56;-4.00;99.90
5578;DHT22;2811;51.900;10.734;2022-11-20T01:35:23;-4.10;99.90
5578;DHT22;2811;51.900;10.734;2022-11-20T01:37:50;-4.10;99.90
5578;DHT22;2811;51.900;10.734;2022-11-20T01:40:18;-4.20;99.90
5578;DHT22;2811;51.900;10.734;2022-11-20T01:43:11;-4.20;99.90
5578;DHT22;2811;51.900;10.734;2022-11-20T01:46:14;-4.10;99.90
5578;DHT22;2811;51.900;10.734;2022-11-20T01:48:46;-3.90;99.90
5578;DHT22;2811;51.900;10.734;2022-11-20T01:51:20;-3.90;99.90
5578;DHT22;2811;51.900;10.734;2022-11-20T01:53:48;-3.90;99.90
5578;DHT22;2811;51.900;10.734;2022-11-20T01:56:17;-4.00;99.90
5578;DHT22;2811;51.900;10.734;2022-11-20T01:58:47;-4.10;99.90
5578;DHT22;2811;51.900;10.734;2022-11-20T02:01:15;-4.20;99.90
5578;DHT22;2811;51.900;10.734;2022-11-20T02:03:42;-4.20;99.90
5578;DHT22;2811;51.900;10.734;2022-11-20T02:06:13;-4.10;99.90
5578;DHT22;2811;51.900;10.734;2022-11-20T02:08:41;-4.10;99.90
5578;DHT22;2811;51.900;10.734;2022-11-20T02:11:08;-4.10;99.90
5578;DHT22;2811;51.900;10.734;2022-11-20T02:13:36;-4.20;99.90
5578;DHT22;2811;51.900;10.734;2022-11-20T02:16:21;-4.10;99.90
5578;DHT22;2811;51.900;10.734;2022-11-20T02:18:49;-4.10;99.90
5578;DHT22;2811;51.900;10.734;2022-11-20T02:21:30;-4.10;99.90
5578;DHT22;2811;51.900;10.734;2022-11-20T02:24:12;-4.10;99.90
5578;DHT22;2811;51.900;10.734;2022-11-20T02:26:46;-4.50;99.90
5578;DHT22;2811;51.900;10.734;2022-11-20T02:29:15;-4.10;99.90
5578;DHT22;2811;51.900;10.734;2022-11-20T02:31:43;-4.10;99.90
5578;DHT22;2811;51.900;10.734;2022-11-20T02:34:11;-4.00;99.90
5578;DHT22;2811;51.900;10.734;2022-11-20T02:36:39;-4.00;99.90
5578;DHT22;2811;51.900;10.734;2022-11-20T02:39:11;-4.00;99.90
5578;DHT22;2811;51.900;10.734;2022-11-20T02:41:42;-4.00;99.90
5578;DHT22;2811;51.900;10.734;2022-11-20T02:44:08;-4.00;99.90
5578;DHT22;2811;51.900;10.734;2022-11-20T02:46:36;-4.00;99.90
5578;DHT22;2811;51.900;10.734;2022-11-20T02:49:03;-4.00;99.90
5578;DHT22;2811;51.900;10.734;2022-11-20T02:51:31;-4.00;99.90
5578;DHT22;2811;51.900;10.734;2022-11-20T02:53:58;-4.10;99.90
5578;DHT22;2811;51.900;10.734;2022-11-20T02:56:26;-4.10;99.90
5578;DHT22;2811;51.900;10.734;2022-11-20T02:58:53;-4.10;99.90
5578;DHT22;2811;51.900;10.734;2022-11-20T03:01:19;-4.20;99.90
5578;DHT22;2811;51.900;10.734;2022-11-20T03:03:46;-4.20;99.90
5578;DHT22;2811;51.900;10.734;2022-11-20T03:06:14;-4.20;99.90
5578;DHT22;2811;51.900;10.734;2022-11-20T03:08:41;-4.20;99.90
5578;DHT22;2811;51.900;10.734;2022-11-20T03:11:08;-4.40;99.90
5578;DHT22;2811;51.900;10.734;2022-11-20T03:13:36;-4.40;99.90
5578;DHT22;2811;51.900;10.734;2022-11-20T03:16:08;-4.30;99.90
5578;DHT22;2811;51.900;10.734;2022-11-20T03:18:35;-4.30;99.90
5578;DHT22;2811;51.900;10.734;2022-11-20T03:21:01;-4.20;99.90
5578;DHT22;2811;51.900;10.734;2022-11-20T03:23:29;-4.20;99.90
5578;DHT22;2811;51.900;10.734;2022-11-20T03:25:56;-4.20;99.90
5578;DHT22;2811;51.900;10.734;2022-11-20T03:28:33;-4.20;99.90
5578;DHT22;2811;51.900;10.734;2022-11-20T03:31:06;-4.30;99.90
5578;DHT22;2811;51.900;10.734;2022-11-20T03:33:32;-4.30;99.90
5578;DHT22;2811;51.900;10.734;2022-11-20T03:36:01;-4.50;99.90
5578;DHT22;2811;51.900;10.734;2022-11-20T03:38:28;-4.50;99.90
5578;DHT22;2811;51.900;10.734;2022-11-20T03:40:58;-4.40;99.90
5578;DHT22;2811;51.900;10.734;2022-11-20T03:43:25;-4.40;99.90
5578;DHT22;2811;51.900;10.734;2022-11-20T03:45:52;-4.30;99.90
5578;DHT22;2811;51.900;10.734;2022-11-20T03:48:20;-4.30;99.90
5578;DHT22;2811;51.900;10.734;2022-11-20T03:50:47;-4.30;99.90
5578;DHT22;2811;51.900;10.734;2022-11-20T03:53:14;-4.30;99.90
5578;DHT22;2811;51.900;10.734;2022-11-20T03:55:41;-4.40;99.90
5578;DHT22;2811;51.900;10.734;2022-11-20T03:58:08;-4.50;99.90
5578;DHT22;2811;51.900;10.734;2022-11-20T04:00:35;-4.50;99.90
5578;DHT22;2811;51.900;10.734;2022-11-20T04:03:02;-4.50;99.90
5578;DHT22;2811;51.900;10.734;2022-11-20T04:05:30;-4.50;99.90
5578;DHT22;2811;51.900;10.734;2022-11-20T04:07:59;-4.50;99.90
5578;DHT22;2811;51.900;10.734;2022-11-20T04:10:25;-4.60;99.90
5578;DHT22;2811;51.900;10.734;2022-11-20T04:12:52;-4.70;99.90
5578;DHT22;2811;51.900;10.734;2022-11-20T04:15:19;-4.70;99.90
5578;DHT22;2811;51.900;10.734;2022-11-20T04:17:46;-4.80;99.90
5578;DHT22;2811;51.900;10.734;2022-11-20T04:20:12;-4.80;99.90
5578;DHT22;2811;51.900;10.734;2022-11-20T04:22:41;-4.50;99.90
5578;DHT22;2811;51.900;10.734;2022-11-20T04:25:08;-4.50;99.90
5578;DHT22;2811;51.900;10.734;2022-11-20T04:27:35;-4.50;99.90
5578;DHT22;2811;51.900;10.734;2022-11-20T04:30:02;-4.40;99.90
5578;DHT22;2811;51.900;10.734;2022-11-20T04:32:29;-4.40;99.90
5578;DHT22;2811;51.900;10.734;2022-11-20T04:34:56;-4.40;99.90
5578;DHT22;2811;51.900;10.734;2022-11-20T04:37:22;-4.40;99.90
5578;DHT22;2811;51.900;10.734;2022-11-20T04:39:50;-4.40;99.90
5578;DHT22;2811;51.900;10.734;2022-11-20T04:42:17;-4.40;99.90
5578;DHT22;2811;51.900;10.734;2022-11-20T04:44:56;-4.40;99.90
5578;DHT22;2811;51.900;10.734;2022-11-20T04:47:23;-4.40;99.90
5578;DHT22;2811;51.900;10.734;2022-11-20T04:49:50;-4.40;99.90
5578;DHT22;2811;51.900;10.734;2022-11-20T04:52:17;-4.30;99.90
5578;DHT22;2811;51.900;10.734;2022-11-20T04:54:44;-4.30;99.90
5578;DHT22;2811;51.900;10.734;2022-11-20T04:57:13;-4.30;99.90
5578;DHT22;2811;51.900;10.734;2022-11-20T04:59:40;-4.30;99.90
5578;DHT22;2811;51.900;10.734;2022-11-20T05:02:06;-4.30;99.90
5578;DHT22;2811;51.900;10.734;2022-11-20T05:04:33;-4.20;99.90
5578;DHT22;2811;51.900;10.734;2022-11-20T05:07:00;-4.20;99.90
5578;DHT22;2811;51.900;10.734;2022-11-20T05:09:26;-4.20;99.90
5578;DHT22;2811;51.900;10.734;2022-11-20T05:11:53;-4.10;99.90
5578;DHT22;2811;51.900;10.734;2022-11-20T05:14:21;-4.10;99.90
5578;DHT22;2811;51.900;10.734;2022-11-20T05:16:48;-4.10;99.90
5578;DHT22;2811;51.900;10.734;2022-11-20T05:19:15;-4.10;99.90
5578;DHT22;2811;51.900;10.734;2022-11-20T05:21:41;-4.10;99.90
5578;DHT22;2811;51.900;10.734;2022-11-20T05:24:08;-4.10;99.90
5578;DHT22;2811;51.900;10.734;2022-11-20T05:26:35;-4.20;99.90
5578;DHT22;2811;51.900;10.734;2022-11-20T05:29:02;-4.20;99.90
5578;DHT22;2811;51.900;10.734;2022-11-20T05:31:30;-4.20;99.90
5578;DHT22;2811;51.900;10.734;2022-11-20T05:33:57;-4.30;99.90
5578;DHT22;2811;51.900;10.734;2022-11-20T05:36:24;-4.20;99.90
5578;DHT22;2811;51.900;10.734;2022-11-20T05:38:50;-4.30;99.90
5578;DHT22;2811;51.900;10.734;2022-11-20T05:41:18;-4.30;99.90
5578;DHT22;2811;51.900;10.734;2022-11-20T05:43:47;-4.40;99.90
5578;DHT22;2811;51.900;10.734;2022-11-20T05:46:17;-4.40;99.90
5578;DHT22;2811;51.900;10.734;2022-11-20T05:48:46;-4.30;99.90
5578;DHT22;2811;51.900;10.734;2022-11-20T05:51:16;-4.40;99.90
5578;DHT22;2811;51.900;10.734;2022-11-20T05:53:43;-4.40;99.90
5578;DHT22;2811;51.900;10.734;2022-11-20T05:56:12;-4.50;99.90
5578;DHT22;2811;51.900;10.734;2022-11-20T05:58:40;-4.40;99.90
5578;DHT22;2811;51.900;10.734;2022-11-20T06:01:08;-4.40;99.90
5578;DHT22;2811;51.900;10.734;2022-11-20T06:03:35;-4.40;99.90
5578;DHT22;2811;51.900;10.734;2022-11-20T06:06:05;-4.30;99.90
5578;DHT22;2811;51.900;10.734;2022-11-20T06:08:32;-4.40;99.90
5578;DHT22;2811;51.900;10.734;2022-11-20T06:11:03;-4.30;99.90
5578;DHT22;2811;51.900;10.734;2022-11-20T06:13:30;-4.30;99.90
5578;DHT22;2811;51.900;10.734;2022-11-20T06:15:57;-4.30;99.90
5578;DHT22;2811;51.900;10.734;2022-11-20T06:18:25;-4.30;99.90
5578;DHT22;2811;51.900;10.734;2022-11-20T06:20:59;-4.50;99.90
5578;DHT22;2811;51.900;10.734;2022-11-20T06:23:29;-4.40;99.90
5578;DHT22;2811;51.900;10.734;2022-11-20T06:25:56;-4.40;99.90
5578;DHT22;2811;51.900;10.734;2022-11-20T06:28:23;-4.50;99.90
5578;DHT22;2811;51.900;10.734;2022-11-20T06:30:50;-4.50;99.90
5578;DHT22;2811;51.900;10.734;2022-11-20T06:33:17;-4.50;99.90
5578;DHT22;2811;51.900;10.734;2022-11-20T06:35:44;-4.50;99.90
5578;DHT22;2811;51.900;10.734;2022-11-20T06:38:10;-4.50;99.90
5578;DHT22;2811;51.900;10.734;2022-11-20T06:40:41;-4.50;99.90
5578;DHT22;2811;51.900;10.734;2022-11-20T06:43:08;-4.60;99.90
5578;DHT22;2811;51.900;10.734;2022-11-20T06:45:35;-4.80;99.90
5578;DHT22;2811;51.900;10.734;2022-11-20T06:48:02;-4.80;99.90
5578;DHT22;2811;51.900;10.734;2022-11-20T06:50:28;-4.90;99.90
5578;DHT22;2811;51.900;10.734;2022-11-20T06:52:55;-4.80;99.90
5578;DHT22;2811;51.900;10.734;2022-11-20T06:55:22;-4.90;99.90
5578;DHT22;2811;51.900;10.734;2022-11-20T06:57:50;-4.80;99.90
5578;DHT22;2811;51.900;10.734;2022-11-20T07:00:17;-4.80;99.90
5578;DHT22;2811;51.900;10.734;2022-11-20T07:02:44;-4.80;99.90
5578;DHT22;2811;51.900;10.734;2022-11-20T07:05:11;-4.70;99.90
5578;DHT22;2811;51.900;10.734;2022-11-20T07:07:37;-4.70;99.90
5578;DHT22;2811;51.900;10.734;2022-11-20T07:10:05;-4.60;99.90
5578;DHT22;2811;51.900;10.734;2022-11-20T07:12:32;-4.60;99.90
5578;DHT22;2811;51.900;10.734;2022-11-20T07:15:00;-4.50;99.90
5578;DHT22;2811;51.900;10.734;2022-11-20T07:17:27;-4.50;99.90
5578;DHT22;2811;51.900;10.734;2022-11-20T07:19:53;-4.50;99.90
5578;DHT22;2811;51.900;10.734;2022-11-20T07:22:20;-4.50;99.90
5578;DHT22;2811;51.900;10.734;2022-11-20T07:24:48;-4.40;99.90
5578;DHT22;2811;51.900;10.734;2022-11-20T07:27:14;-4.30;99.90
5578;DHT22;2811;51.900;10.734;2022-11-20T07:29:41;-4.10;99.90
5578;DHT22;2811;51.900;10.734;2022-11-20T07:32:09;-4.00;99.90
5578;DHT22;2811;51.900;10.734;2022-11-20T07:34:36;-4.00;99.90
5578;DHT22;2811;51.900;10.734;2022-11-20T07:37:03;-3.80;99.90
5578;DHT22;2811;51.900;10.734;2022-11-20T07:39:29;-3.70;99.90
5578;DHT22;2811;51.900;10.734;2022-11-20T07:41:56;-3.40;99.90
5578;DHT22;2811;51.900;10.734;2022-11-20T07:44:23;-3.30;99.90
5578;DHT22;2811;51.900;10.734;2022-11-20T07:46:50;-3.20;99.90
5578;DHT22;2811;51.900;10.734;2022-11-20T07:49:18;-3.20;99.90
5578;DHT22;2811;51.900;10.734;2022-11-20T07:51:44;-3.20;99.90
5578;DHT22;2811;51.900;10.734;2022-11-20T07:54:11;-3.10;99.90
5578;DHT22;2811;51.900;10.734;2022-11-20T07:56:38;-3.00;99.90
5578;DHT22;2811;51.900;10.734;2022-11-20T07:59:05;-2.90;99.90
5578;DHT22;2811;51.900;10.734;2022-11-20T08:01:31;-2.90;99.90
5578;DHT22;2811;51.900;10.734;2022-11-20T08:03:58;-2.70;99.90
5578;DHT22;2811;51.900;10.734;2022-11-20T08:06:26;-2.50;99.90
5578;DHT22;2811;51.900;10.734;2022-11-20T08:08:53;-2.50;99.90
5578;DHT22;2811;51.900;10.734;2022-11-20T08:11:20;-2.50;99.90
5578;DHT22;2811;51.900;10.734;2022-11-20T08:14:04;-2.30;99.90
5578;DHT22;2811;51.900;10.734;2022-11-20T08:16:41;-2.10;99.90
5578;DHT22;2811;51.900;10.734;2022-11-20T08:19:08;-1.80;99.90
5578;DHT22;2811;51.900;10.734;2022-11-20T08:21:36;-1.60;99.90
5578;DHT22;2811;51.900;10.734;2022-11-20T08:24:04;-1.40;99.90
5578;DHT22;2811;51.900;10.734;2022-11-20T08:26:31;-1.20;99.90
5578;DHT22;2811;51.900;10.734;2022-11-20T08:28:58;-1.20;99.90
5578;DHT22;2811;51.900;10.734;2022-11-20T08:31:26;-1.20;99.90
5578;DHT22;2811;51.900;10.734;2022-11-20T08:33:53;-0.90;99.90
5578;DHT22;2811;51.900;10.734;2022-11-20T08:36:20;-0.80;99.90
5578;DHT22;2811;51.900;10.734;2022-11-20T08:38:49;-0.70;99.90
5578;DHT22;2811;51.900;10.734;2022-11-20T08:41:16;-0.30;99.90
5578;DHT22;2811;51.900;10.734;2022-11-20T08:43:55;-0.20;99.90
5578;DHT22;2811;51.900;10.734;2022-11-20T08:46:22;-0.10;99.90
5578;DHT22;2811;51.900;10.734;2022-11-20T08:48:49;0.00;99.90
5578;DHT22;2811;51.900;10.734;2022-11-20T08:51:17;0.10;99.90
5578;DHT22;2811;51.900;10.734;2022-11-20T08:53:43;0.00;99.90
5578;DHT22;2811;51.900;10.734;2022-11-20T08:56:13;-0.20;99.90
5578;DHT22;2811;51.900;10.734;2022-11-20T08:58:40;-0.30;99.90
5578;DHT22;2811;51.900;10.734;2022-11-20T09:01:07;-0.50;99.90
5578;DHT22;2811;51.900;10.734;2022-11-20T09:03:33;-0.50;99.90
5578;DHT22;2811;51.900;10.734;2022-11-20T09:06:02;-0.40;99.90
5578;DHT22;2811;51.900;10.734;2022-11-20T09:08:30;-0.40;99.90
5578;DHT22;2811;51.900;10.734;2022-11-20T09:10:57;-0.20;99.90
5578;DHT22;2811;51.900;10.734;2022-11-20T09:13:27;0.50;99.90
5578;DHT22;2811;51.900;10.734;2022-11-20T09:15:54;0.90;99.90
5578;DHT22;2811;51.900;10.734;2022-11-20T09:18:22;0.60;99.90
5578;DHT22;2811;51.900;10.734;2022-11-20T09:20:49;0.70;99.90
5578;DHT22;2811;51.900;10.734;2022-11-20T09:23:16;0.70;99.90
5578;DHT22;2811;51.900;10.734;2022-11-20T09:25:43;0.80;99.90
5578;DHT22;2811;51.900;10.734;2022-11-20T09:28:10;0.90;99.90
5578;DHT22;2811;51.900;10.734;2022-11-20T09:30:38;0.90;99.90
5578;DHT22;2811;51.900;10.734;2022-11-20T09:33:05;0.80;99.90
5578;DHT22;2811;51.900;10.734;2022-11-20T09:35:32;0.90;99.90
5578;DHT22;2811;51.900;10.734;2022-11-20T09:38:04;0.90;99.90
5578;DHT22;2811;51.900;10.734;2022-11-20T09:40:32;1.00;99.90
5578;DHT22;2811;51.900;10.734;2022-11-20T09:43:03;1.20;99.90
5578;DHT22;2811;51.900;10.734;2022-11-20T09:45:46;1.40;99.90
5578;DHT22;2811;51.900;10.734;2022-11-20T09:48:56;1.30;99.90
5578;DHT22;2811;51.900;10.734;2022-11-20T09:51:35;1.50;99.90
5578;DHT22;2811;51.900;10.734;2022-11-20T09:54:15;1.90;99.90
5578;DHT22;2811;51.900;10.734;2022-11-20T09:56:46;1.70;99.90
5578;DHT22;2811;51.900;10.734;2022-11-20T09:59:32;1.80;99.90
5578;DHT22;2811;51.900;10.734;2022-11-20T10:02:02;1.90;99.90
5578;DHT22;2811;51.900;10.734;2022-11-20T10:04:43;1.80;99.90
5578;DHT22;2811;51.900;10.734;2022-11-20T10:07:15;2.10;99.90
5578;DHT22;2811;51.900;10.734;2022-11-20T10:09:50;2.40;99.90
5578;DHT22;2811;51.900;10.734;2022-11-20T10:12:22;2.40;99.90
5578;DHT22;2811;51.900;10.734;2022-11-20T10:15:10;2.30;99.90
5578;DHT22;2811;51.900;10.734;2022-11-20T10:17:59;2.60;99.90
5578;DHT22;2811;51.900;10.734;2022-11-20T10:20:32;2.40;99.90
5578;DHT22;2811;51.900;10.734;2022-11-20T10:23:23;2.90;99.90
5578;DHT22;2811;51.900;10.734;2022-11-20T10:25:56;2.90;99.90
5578;DHT22;2811;51.900;10.734;2022-11-20T10:28:34;3.20;99.90
5578;DHT22;2811;51.900;10.734;2022-11-20T10:31:09;3.30;99.90
5578;DHT22;2811;51.900;10.734;2022-11-20T10:33:42;3.50;99.90
5578;DHT22;2811;51.900;10.734;2022-11-20T10:36:14;3.50;99.90
5578;DHT22;2811;51.900;10.734;2022-11-20T10:38:44;3.50;99.90
5578;DHT22;2811;51.900;10.734;2022-11-20T10:41:16;3.40;99.90
5578;DHT22;2811;51.900;10.734;2022-11-20T10:44:01;3.20;99.90
5578;DHT22;2811;51.900;10.734;2022-11-20T10:46:34;3.20;99.90
5578;DHT22;2811;51.900;10.734;2022-11-20T10:49:12;3.30;99.90
5578;DHT22;2811;51.900;10.734;2022-11-20T10:51:49;3.30;99.90
5578;DHT22;2811;51.900;10.734;2022-11-20T10:54:23;3.30;99.90
5578;DHT22;2811;51.900;10.734;2022-11-20T10:57:01;3.30;99.90
5578;DHT22;2811;51.900;10.734;2022-11-20T10:59:38;3.30;99.90
5578;DHT22;2811;51.900;10.734;2022-11-20T11:02:19;3.40;99.90
5578;DHT22;2811;51.900;10.734;2022-11-20T11:04:49;3.50;99.90
5578;DHT22;2811;51.900;10.734;2022-11-20T11:07:19;3.50;99.90
5578;DHT22;2811;51.900;10.734;2022-11-20T11:09:49;3.50;99.90
5578;DHT22;2811;51.900;10.734;2022-11-20T11:12:16;3.40;99.90
5578;DHT22;2811;51.900;10.734;2022-11-20T11:14:48;3.40;99.90
5578;DHT22;2811;51.900;10.734;2022-11-20T11:17:24;3.30;99.90
5578;DHT22;2811;51.900;10.734;2022-11-20T11:20:05;3.10;99.90
5578;DHT22;2811;51.900;10.734;2022-11-20T11:22:34;3.00;99.90
5578;DHT22;2811;51.900;10.734;2022-11-20T11:25:01;2.80;99.90
5578;DHT22;2811;51.900;10.734;2022-11-20T11:27:28;2.90;99.90
5578;DHT22;2811;51.900;10.734;2022-11-20T11:30:13;3.20;99.90
5578;DHT22;2811;51.900;10.734;2022-11-20T11:32:40;3.40;99.90
5578;DHT22;2811;51.900;10.734;2022-11-20T11:35:20;3.70;99.90
5578;DHT22;2811;51.900;10.734;2022-11-20T11:37:47;3.90;99.90
5578;DHT22;2811;51.900;10.734;2022-11-20T11:40:15;4.00;99.90
5578;DHT22;2811;51.900;10.734;2022-11-20T11:42:45;4.10;99.90
5578;DHT22;2811;51.900;10.734;2022-11-20T11:45:15;4.30;99.90
5578;DHT22;2811;51.900;10.734;2022-11-20T11:47:45;4.40;99.90
5578;DHT22;2811;51.900;10.734;2022-11-20T11:50:20;4.60;99.90
5578;DHT22;2811;51.900;10.734;2022-11-20T11:52:54;4.60;99.90
5578;DHT22;2811;51.900;10.734;2022-11-20T11:55:29;4.80;99.90
5578;DHT22;2811;51.900;10.734;2022-11-20T11:58:06;4.80;99.90
5578;DHT22;2811;51.900;10.734;2022-11-20T12:00:37;4.80;99.90
5578;DHT22;2811;51.900;10.734;2022-11-20T12:03:11;4.80;99.90
5578;DHT22;2811;51.900;10.734;2022-11-20T12:05:43;4.70;99.90
5578;DHT22;2811;51.900;10.734;2022-11-20T12:08:16;4.70;99.90
5578;DHT22;2811;51.900;10.734;2022-11-20T12:10:48;4.70;99.90
5578;DHT22;2811;51.900;10.734;2022-11-20T12:13:34;4.40;99.90
5578;DHT22;2811;51.900;10.734;2022-11-20T12:16:05;4.30;99.90
5578;DHT22;2811;51.900;10.734;2022-11-20T12:18:32;4.20;99.90
5578;DHT22;2811;51.900;10.734;2022-11-20T12:21:12;4.20;99.90
5578;DHT22;2811;51.900;10.734;2022-11-20T12:26:46;4.00;99.90
5578;DHT22;2811;51.900;10.734;2022-11-20T12:29:27;3.90;99.90
5578;DHT22;2811;51.900;10.734;2022-11-20T12:32:16;3.60;99.90
5578;DHT22;2811;51.900;10.734;2022-11-20T12:34:56;3.40;99.90
5578;DHT22;2811;51.900;10.734;2022-11-20T12:37:38;3.40;99.90
5578;DHT22;2811;51.900;10.734;2022-11-20T12:40:22;3.40;99.90
5578;DHT22;2811;51.900;10.734;2022-11-20T12:43:01;3.20;99.90
5578;DHT22;2811;51.900;10.734;2022-11-20T12:46:09;3.10;99.90
5578;DHT22;2811;51.900;10.734;2022-11-20T12:48:46;3.00;99.90
5578;DHT22;2811;51.900;10.734;2022-11-20T12:51:36;2.90;99.90
5578;DHT22;2811;51.900;10.734;2022-11-20T12:57:02;3.00;99.90
5578;DHT22;2811;51.900;10.734;2022-11-20T12:59:46;2.80;99.90
5578;DHT22;2811;51.900;10.734;2022-11-20T13:02:24;2.80;99.90
5578;DHT22;2811;51.900;10.734;2022-11-20T13:05:24;2.80;99.90
5578;DHT22;2811;51.900;10.734;2022-11-20T13:07:53;2.80;99.90
5578;DHT22;2811;51.900;10.734;2022-11-20T13:10:26;2.70;99.90
5578;DHT22;2811;51.900;10.734;2022-11-20T13:13:03;2.70;99.90
5578;DHT22;2811;51.900;10.734;2022-11-20T13:15:42;2.80;99.90
5578;DHT22;2811;51.900;10.734;2022-11-20T13:18:11;2.90;99.90
5578;DHT22;2811;51.900;10.734;2022-11-20T13:20:42;2.90;99.90
5578;DHT22;2811;51.900;10.734;2022-11-20T13:23:10;2.80;99.90
5578;DHT22;2811;51.900;10.734;2022-11-20T13:25:38;2.80;99.90
5578;DHT22;2811;51.900;10.734;2022-11-20T13:28:28;2.80;99.90
5578;DHT22;2811;51.900;10.734;2022-11-20T13:30:56;2.80;99.90
5578;DHT22;2811;51.900;10.734;2022-11-20T13:33:28;2.80;99.90
5578;DHT22;2811;51.900;10.734;2022-11-20T13:35:57;2.80;99.90
5578;DHT22;2811;51.900;10.734;2022-11-20T13:38:24;2.70;99.90
5578;DHT22;2811;51.900;10.734;2022-11-20T13:40:52;2.60;99.90
5578;DHT22;2811;51.900;10.734;2022-11-20T13:43:23;2.60;99.90
5578;DHT22;2811;51.900;10.734;2022-11-20T13:46:01;2.60;99.90
5578;DHT22;2811;51.900;10.734;2022-11-20T13:48:31;2.70;99.90
5578;DHT22;2811;51.900;10.734;2022-11-20T13:51:18;2.70;99.90
5578;DHT22;2811;51.900;10.734;2022-11-20T13:54:14;2.70;99.90
5578;DHT22;2811;51.900;10.734;2022-11-20T13:56:54;2.60;99.90
5578;DHT22;2811;51.900;10.734;2022-11-20T13:59:43;2.60;99.90
5578;DHT22;2811;51.900;10.734;2022-11-20T14:02:18;2.70;99.90
5578;DHT22;2811;51.900;10.734;2022-11-20T14:04:48;2.60;99.90
5578;DHT22;2811;51.900;10.734;2022-11-20T14:07:16;2.50;99.90
5578;DHT22;2811;51.900;10.734;2022-11-20T14:09:50;2.50;99.90
5578;DHT22;2811;51.900;10.734;2022-11-20T14:12:19;2.50;99.90
5578;DHT22;2811;51.900;10.734;2022-11-20T14:14:51;2.40;99.90
5578;DHT22;2811;51.900;10.734;2022-11-20T14:17:22;2.40;99.90
5578;DHT22;2811;51.900;10.734;2022-11-20T14:19:51;2.50;99.90
5578;DHT22;2811;51.900;10.734;2022-11-20T14:22:21;2.70;99.90
5578;DHT22;2811;51.900;10.734;2022-11-20T14:24:49;2.60;99.90
5578;DHT22;2811;51.900;10.734;2022-11-20T14:27:26;2.70;99.90
5578;DHT22;2811;51.900;10.734;2022-11-20T14:29:53;2.90;99.90
5578;DHT22;2811;51.900;10.734;2022-11-20T14:32:25;2.90;99.90
5578;DHT22;2811;51.900;10.734;2022-11-20T14:34:54;2.80;99.90
5578;DHT22;2811;51.900;10.734;2022-11-20T14:37:24;2.70;99.90
5578;DHT22;2811;51.900;10.734;2022-11-20T14:39:53;2.60;99.90
5578;DHT22;2811;51.900;10.734;2022-11-20T14:42:22;2.60;99.90
5578;DHT22;2811;51.900;10.734;2022-11-20T14:44:50;2.60;99.90
5578;DHT22;2811;51.900;10.734;2022-11-20T14:47:20;2.60;99.90
5578;DHT22;2811;51.900;10.734;2022-11-20T14:49:49;2.50;99.90
5578;DHT22;2811;51.900;10.734;2022-11-20T14:52:18;2.40;99.90
5578;DHT22;2811;51.900;10.734;2022-11-20T14:54:47;2.40;99.90
5578;DHT22;2811;51.900;10.734;2022-11-20T14:57:23;2.30;99.90
5578;DHT22;2811;51.900;10.734;2022-11-20T14:59:50;2.20;99.90
5578;DHT22;2811;51.900;10.734;2022-11-20T15:02:17;2.10;99.90
5578;DHT22;2811;51.900;10.734;2022-11-20T15:04:45;2.10;99.90
5578;DHT22;2811;51.900;10.734;2022-11-20T15:07:23;2.00;99.90
5578;DHT22;2811;51.900;10.734;2022-11-20T15:10:00;1.80;99.90
5578;DHT22;2811;51.900;10.734;2022-11-20T15:12:27;1.70;99.90
5578;DHT22;2811;51.900;10.734;2022-11-20T15:14:54;1.50;99.90
5578;DHT22;2811;51.900;10.734;2022-11-20T15:17:21;1.30;99.90
5578;DHT22;2811;51.900;10.734;2022-11-20T15:19:48;1.40;99.90
5578;DHT22;2811;51.900;10.734;2022-11-20T15:22:16;1.30;99.90
5578;DHT22;2811;51.900;10.734;2022-11-20T15:24:43;1.10;99.90
5578;DHT22;2811;51.900;10.734;2022-11-20T15:27:10;1.00;99.90
5578;DHT22;2811;51.900;10.734;2022-11-20T15:29:37;0.90;99.90
5578;DHT22;2811;51.900;10.734;2022-11-20T15:32:04;0.90;99.90
5578;DHT22;2811;51.900;10.734;2022-11-20T15:34:31;0.80;99.90
5578;DHT22;2811;51.900;10.734;2022-11-20T15:36:58;0.80;99.90
5578;DHT22;2811;51.900;10.734;2022-11-20T15:39:26;0.70;99.90
5578;DHT22;2811;51.900;10.734;2022-11-20T15:41:53;0.60;99.90
5578;DHT22;2811;51.900;10.734;2022-11-20T15:44:20;0.60;99.90
5578;DHT22;2811;51.900;10.734;2022-11-20T15:46:46;0.60;99.90
5578;DHT22;2811;51.900;10.734;2022-11-20T15:49:14;0.60;99.90
5578;DHT22;2811;51.900;10.734;2022-11-20T15:51:45;0.50;99.90
5578;DHT22;2811;51.900;10.734;2022-11-20T15:54:14;0.50;99.90
5578;DHT22;2811;51.900;10.734;2022-11-20T15:56:42;0.40;99.90
5578;DHT22;2811;51.900;10.734;2022-11-20T15:59:09;0.40;99.90
5578;DHT22;2811;51.900;10.734;2022-11-20T16:01:36;0.40;99.90
5578;DHT22;2811;51.900;10.734;2022-11-20T16:04:04;0.40;99.90
5578;DHT22;2811;51.900;10.734;2022-11-20T16:06:31;0.40;99.90
5578;DHT22;2811;51.900;10.734;2022-11-20T16:08:58;0.40;99.90
5578;DHT22;2811;51.900;10.734;2022-11-20T16:11:25;0.40;99.90
5578;DHT22;2811;51.900;10.734;2022-11-20T16:13:53;0.30;99.90
5578;DHT22;2811;51.900;10.734;2022-11-20T16:16:38;0.30;99.90
5578;DHT22;2811;51.900;10.734;2022-11-20T16:19:08;0.20;99.90